sensor_id;sensor_type;location;lat;lon;timestamp;P1;durP1;ratioP1;P2;durP2;ratioP2
71435;SDS011;59251;51.326;12.370;2023-08-21T00:00:41;8.68;;;3.70;;
71435;SDS011;59251;51.326;12.370;2023-08-21T00:03:07;7.95;;;3.22;;
71435;SDS011;59251;51.326;12.370;2023-08-21T00:05:34;9.50;;;3.67;;
71435;SDS011;59251;51.326;12.370;2023-08-21T00:08:01;9.53;;;3.60;;
71435;SDS011;59251;51.326;12.370;2023-08-21T00:10:29;8.90;;;3.53;;
71435;SDS011;59251;51.326;12.370;2023-08-21T00:12:56;9.20;;;3.40;;
71435;SDS011;59251;51.326;12.370;2023-08-21T00:15:23;9.02;;;3.38;;
71435;SDS011;59251;51.326;12.370;2023-08-21T00:17:50;8.73;;;3.15;;
71435;SDS011;59251;51.326;12.370;2023-08-21T00:20:17;8.17;;;3.80;;
71435;SDS011;59251;51.326;12.370;2023-08-21T00:22:44;8.07;;;3.30;;
71435;SDS011;59251;51.326;12.370;2023-08-21T00:25:10;8.70;;;3.60;;
71435;SDS011;59251;51.326;12.370;2023-08-21T00:27:39;8.85;;;3.90;;
71435;SDS011;59251;51.326;12.370;2023-08-21T00:30:06;8.27;;;3.60;;
71435;SDS011;59251;51.326;12.370;2023-08-21T00:32:33;9.47;;;3.83;;
71435;SDS011;59251;51.326;12.370;2023-08-21T00:35:01;8.20;;;3.65;;
71435;SDS011;59251;51.326;12.370;2023-08-21T00:37:27;10.57;;;4.07;;
71435;SDS011;59251;51.326;12.370;2023-08-21T00:39:54;7.20;;;3.40;;
71435;SDS011;59251;51.326;12.370;2023-08-21T00:42:21;9.52;;;3.92;;
71435;SDS011;59251;51.326;12.370;2023-08-21T00:44:49;7.07;;;2.90;;
71435;SDS011;59251;51.326;12.370;2023-08-21T00:47:16;8.80;;;3.55;;
71435;SDS011;59251;51.326;12.370;2023-08-21T00:49:44;10.50;;;4.20;;
71435;SDS011;59251;51.326;12.370;2023-08-21T00:52:12;8.85;;;4.20;;
71435;SDS011;59251;51.326;12.370;2023-08-21T00:54:40;9.13;;;4.05;;
71435;SDS011;59251;51.326;12.370;2023-08-21T00:57:07;8.20;;;3.80;;
71435;SDS011;59251;51.326;12.370;2023-08-21T00:59:35;14.13;;;4.47;;
71435;SDS011;59251;51.326;12.370;2023-08-21T01:02:04;8.48;;;4.18;;
71435;SDS011;59251;51.326;12.370;2023-08-21T01:04:31;10.77;;;3.95;;
71435;SDS011;59251;51.326;12.370;2023-08-21T01:06:57;8.63;;;4.13;;
71435;SDS011;59251;51.326;12.370;2023-08-21T01:09:25;9.93;;;3.90;;
71435;SDS011;59251;51.326;12.370;2023-08-21T01:11:58;9.95;;;3.90;;
71435;SDS011;59251;51.326;12.370;2023-08-21T01:14:36;8.38;;;4.10;;
71435;SDS011;59251;51.326;12.370;2023-08-21T01:17:17;7.97;;;3.72;;
71435;SDS011;59251;51.326;12.370;2023-08-21T01:19:47;9.27;;;4.05;;
71435;SDS011;59251;51.326;12.370;2023-08-21T01:22:15;10.77;;;4.57;;
71435;SDS011;59251;51.326;12.370;2023-08-21T01:24:44;9.93;;;4.10;;
71435;SDS011;59251;51.326;12.370;2023-08-21T01:27:11;9.32;;;3.97;;
71435;SDS011;59251;51.326;12.370;2023-08-21T01:29:40;9.82;;;4.00;;
71435;SDS011;59251;51.326;12.370;2023-08-21T01:32:07;7.78;;;3.95;;
71435;SDS011;59251;51.326;12.370;2023-08-21T01:34:42;8.63;;;3.70;;
71435;SDS011;59251;51.326;12.370;2023-08-21T01:37:09;8.90;;;4.00;;
71435;SDS011;59251;51.326;12.370;2023-08-21T01:39:37;9.65;;;4.13;;
71435;SDS011;59251;51.326;12.370;2023-08-21T01:42:06;9.38;;;3.63;;
71435;SDS011;59251;51.326;12.370;2023-08-21T01:44:33;8.57;;;3.50;;
71435;SDS011;59251;51.326;12.370;2023-08-21T01:47:01;8.17;;;3.97;;
71435;SDS011;59251;51.326;12.370;2023-08-21T01:49:28;8.45;;;3.75;;
71435;SDS011;59251;51.326;12.370;2023-08-21T01:51:55;7.75;;;4.00;;
71435;SDS011;59251;51.326;12.370;2023-08-21T01:54:24;9.32;;;3.83;;
71435;SDS011;59251;51.326;12.370;2023-08-21T01:56:51;11.52;;;4.10;;
71435;SDS011;59251;51.326;12.370;2023-08-21T01:59:19;9.40;;;4.03;;
71435;SDS011;59251;51.326;12.370;2023-08-21T02:01:46;9.93;;;4.18;;
71435;SDS011;59251;51.326;12.370;2023-08-21T02:04:13;9.68;;;4.18;;
71435;SDS011;59251;51.326;12.370;2023-08-21T02:06:40;10.18;;;4.22;;
71435;SDS011;59251;51.326;12.370;2023-08-21T02:09:09;8.85;;;4.22;;
71435;SDS011;59251;51.326;12.370;2023-08-21T02:11:35;8.77;;;4.40;;
71435;SDS011;59251;51.326;12.370;2023-08-21T02:14:02;9.77;;;4.70;;
71435;SDS011;59251;51.326;12.370;2023-08-21T02:16:32;12.48;;;4.28;;
71435;SDS011;59251;51.326;12.370;2023-08-21T02:18:58;10.70;;;4.20;;
71435;SDS011;59251;51.326;12.370;2023-08-21T02:21:25;12.85;;;4.68;;
71435;SDS011;59251;51.326;12.370;2023-08-21T02:23:52;10.87;;;4.20;;
71435;SDS011;59251;51.326;12.370;2023-08-21T02:26:19;9.00;;;4.13;;
71435;SDS011;59251;51.326;12.370;2023-08-21T02:28:45;10.15;;;4.45;;
71435;SDS011;59251;51.326;12.370;2023-08-21T02:31:12;10.57;;;4.45;;
71435;SDS011;59251;51.326;12.370;2023-08-21T02:33:40;10.35;;;4.18;;
71435;SDS011;59251;51.326;12.370;2023-08-21T02:36:07;10.47;;;4.27;;
71435;SDS011;59251;51.326;12.370;2023-08-21T02:38:34;10.68;;;4.93;;
71435;SDS011;59251;51.326;12.370;2023-08-21T02:41:03;10.65;;;4.95;;
71435;SDS011;59251;51.326;12.370;2023-08-21T02:43:29;11.43;;;4.82;;
71435;SDS011;59251;51.326;12.370;2023-08-21T02:45:56;10.43;;;4.60;;
71435;SDS011;59251;51.326;12.370;2023-08-21T02:48:24;10.43;;;4.87;;
71435;SDS011;59251;51.326;12.370;2023-08-21T02:50:52;9.07;;;4.43;;
71435;SDS011;59251;51.326;12.370;2023-08-21T02:53:19;8.93;;;4.35;;
71435;SDS011;59251;51.326;12.370;2023-08-21T02:55:46;8.65;;;4.85;;
71435;SDS011;59251;51.326;12.370;2023-08-21T02:58:13;11.32;;;4.97;;
71435;SDS011;59251;51.326;12.370;2023-08-21T03:00:40;9.83;;;4.80;;
71435;SDS011;59251;51.326;12.370;2023-08-21T03:03:06;10.63;;;4.70;;
71435;SDS011;59251;51.326;12.370;2023-08-21T03:05:33;9.88;;;4.78;;
71435;SDS011;59251;51.326;12.370;2023-08-21T03:08:02;11.38;;;4.38;;
71435;SDS011;59251;51.326;12.370;2023-08-21T03:10:30;10.30;;;4.65;;
71435;SDS011;59251;51.326;12.370;2023-08-21T03:12:59;9.47;;;4.63;;
71435;SDS011;59251;51.326;12.370;2023-08-21T03:15:26;9.90;;;4.50;;
71435;SDS011;59251;51.326;12.370;2023-08-21T03:17:54;11.10;;;4.25;;
71435;SDS011;59251;51.326;12.370;2023-08-21T03:20:21;13.30;;;4.63;;
71435;SDS011;59251;51.326;12.370;2023-08-21T03:22:48;9.40;;;4.20;;
71435;SDS011;59251;51.326;12.370;2023-08-21T03:25:16;8.20;;;4.23;;
71435;SDS011;59251;51.326;12.370;2023-08-21T03:27:43;10.25;;;4.72;;
71435;SDS011;59251;51.326;12.370;2023-08-21T03:30:14;10.68;;;4.70;;
71435;SDS011;59251;51.326;12.370;2023-08-21T03:32:42;9.68;;;4.88;;
71435;SDS011;59251;51.326;12.370;2023-08-21T03:35:10;9.90;;;4.65;;
71435;SDS011;59251;51.326;12.370;2023-08-21T03:37:37;9.77;;;4.27;;
71435;SDS011;59251;51.326;12.370;2023-08-21T03:40:06;12.30;;;4.93;;
71435;SDS011;59251;51.326;12.370;2023-08-21T03:42:35;11.02;;;5.28;;
71435;SDS011;59251;51.326;12.370;2023-08-21T03:45:02;11.45;;;5.13;;
71435;SDS011;59251;51.326;12.370;2023-08-21T03:47:30;10.57;;;5.13;;
71435;SDS011;59251;51.326;12.370;2023-08-21T03:50:02;11.57;;;5.27;;
71435;SDS011;59251;51.326;12.370;2023-08-21T03:52:29;11.98;;;5.18;;
71435;SDS011;59251;51.326;12.370;2023-08-21T03:54:55;10.57;;;4.90;;
71435;SDS011;59251;51.326;12.370;2023-08-21T03:57:22;10.40;;;4.85;;
71435;SDS011;59251;51.326;12.370;2023-08-21T03:59:50;9.20;;;4.55;;
71435;SDS011;59251;51.326;12.370;2023-08-21T04:02:17;11.70;;;6.33;;
71435;SDS011;59251;51.326;12.370;2023-08-21T04:04:43;11.95;;;4.75;;
71435;SDS011;59251;51.326;12.370;2023-08-21T04:07:10;10.70;;;5.20;;
71435;SDS011;59251;51.326;12.370;2023-08-21T04:09:37;11.40;;;4.28;;
71435;SDS011;59251;51.326;12.370;2023-08-21T04:12:04;13.88;;;4.32;;
71435;SDS011;59251;51.326;12.370;2023-08-21T04:14:31;9.27;;;4.67;;
71435;SDS011;59251;51.326;12.370;2023-08-21T04:16:59;10.55;;;4.82;;
71435;SDS011;59251;51.326;12.370;2023-08-21T04:19:26;10.90;;;4.80;;
71435;SDS011;59251;51.326;12.370;2023-08-21T04:21:55;11.27;;;4.60;;
71435;SDS011;59251;51.326;12.370;2023-08-21T04:24:22;9.38;;;4.15;;
71435;SDS011;59251;51.326;12.370;2023-08-21T04:26:49;10.43;;;4.50;;
71435;SDS011;59251;51.326;12.370;2023-08-21T04:29:15;9.00;;;4.80;;
71435;SDS011;59251;51.326;12.370;2023-08-21T04:31:42;12.18;;;5.07;;
71435;SDS011;59251;51.326;12.370;2023-08-21T04:34:10;10.77;;;4.88;;
71435;SDS011;59251;51.326;12.370;2023-08-21T04:36:37;10.77;;;4.80;;
71435;SDS011;59251;51.326;12.370;2023-08-21T04:39:04;11.40;;;5.20;;
71435;SDS011;59251;51.326;12.370;2023-08-21T04:41:32;11.32;;;5.43;;
71435;SDS011;59251;51.326;12.370;2023-08-21T04:43:59;10.43;;;5.40;;
71435;SDS011;59251;51.326;12.370;2023-08-21T04:46:26;10.63;;;5.22;;
71435;SDS011;59251;51.326;12.370;2023-08-21T04:48:54;9.07;;;5.18;;
71435;SDS011;59251;51.326;12.370;2023-08-21T04:51:22;10.07;;;5.30;;
71435;SDS011;59251;51.326;12.370;2023-08-21T04:53:49;11.70;;;5.53;;
71435;SDS011;59251;51.326;12.370;2023-08-21T04:56:18;10.57;;;5.50;;
71435;SDS011;59251;51.326;12.370;2023-08-21T04:58:45;12.18;;;5.57;;
71435;SDS011;59251;51.326;12.370;2023-08-21T05:01:12;9.50;;;5.50;;
71435;SDS011;59251;51.326;12.370;2023-08-21T05:03:43;12.53;;;5.83;;
71435;SDS011;59251;51.326;12.370;2023-08-21T05:06:11;12.85;;;5.63;;
71435;SDS011;59251;51.326;12.370;2023-08-21T05:08:39;10.40;;;6.00;;
71435;SDS011;59251;51.326;12.370;2023-08-21T05:11:07;11.60;;;6.15;;
71435;SDS011;59251;51.326;12.370;2023-08-21T05:13:36;11.90;;;6.18;;
71435;SDS011;59251;51.326;12.370;2023-08-21T05:16:05;12.20;;;5.60;;
71435;SDS011;59251;51.326;12.370;2023-08-21T05:18:35;16.25;;;6.10;;
71435;SDS011;59251;51.326;12.370;2023-08-21T05:21:03;13.27;;;5.78;;
71435;SDS011;59251;51.326;12.370;2023-08-21T05:23:30;11.60;;;5.45;;
71435;SDS011;59251;51.326;12.370;2023-08-21T05:26:05;14.30;;;5.78;;
71435;SDS011;59251;51.326;12.370;2023-08-21T05:28:32;11.77;;;5.63;;
71435;SDS011;59251;51.326;12.370;2023-08-21T05:30:59;10.50;;;6.25;;
71435;SDS011;59251;51.326;12.370;2023-08-21T05:33:30;12.93;;;6.00;;
71435;SDS011;59251;51.326;12.370;2023-08-21T05:35:57;11.43;;;5.78;;
71435;SDS011;59251;51.326;12.370;2023-08-21T05:38:24;12.75;;;6.00;;
71435;SDS011;59251;51.326;12.370;2023-08-21T05:40:51;13.17;;;6.23;;
71435;SDS011;59251;51.326;12.370;2023-08-21T05:43:19;12.95;;;6.40;;
71435;SDS011;59251;51.326;12.370;2023-08-21T05:45:46;13.20;;;6.53;;
71435;SDS011;59251;51.326;12.370;2023-08-21T05:48:13;11.20;;;6.30;;
71435;SDS011;59251;51.326;12.370;2023-08-21T05:50:40;15.05;;;6.78;;
71435;SDS011;59251;51.326;12.370;2023-08-21T05:53:07;13.80;;;6.63;;
71435;SDS011;59251;51.326;12.370;2023-08-21T05:55:36;12.25;;;6.47;;
71435;SDS011;59251;51.326;12.370;2023-08-21T05:58:03;15.25;;;6.53;;
71435;SDS011;59251;51.326;12.370;2023-08-21T06:00:32;14.38;;;6.18;;
71435;SDS011;59251;51.326;12.370;2023-08-21T06:03:01;10.40;;;5.50;;
71435;SDS011;59251;51.326;12.370;2023-08-21T06:05:42;11.80;;;6.03;;
71435;SDS011;59251;51.326;12.370;2023-08-21T06:08:09;12.00;;;7.00;;
71435;SDS011;59251;51.326;12.370;2023-08-21T06:10:36;11.55;;;5.82;;
71435;SDS011;59251;51.326;12.370;2023-08-21T06:13:03;14.93;;;5.55;;
71435;SDS011;59251;51.326;12.370;2023-08-21T06:15:31;12.20;;;5.85;;
71435;SDS011;59251;51.326;12.370;2023-08-21T06:17:58;14.50;;;5.60;;
71435;SDS011;59251;51.326;12.370;2023-08-21T06:20:26;12.95;;;6.38;;
71435;SDS011;59251;51.326;12.370;2023-08-21T06:22:52;15.20;;;6.00;;
71435;SDS011;59251;51.326;12.370;2023-08-21T06:25:19;12.73;;;5.93;;
71435;SDS011;59251;51.326;12.370;2023-08-21T06:27:46;15.60;;;5.70;;
71435;SDS011;59251;51.326;12.370;2023-08-21T06:30:13;10.10;;;5.03;;
71435;SDS011;59251;51.326;12.370;2023-08-21T06:32:43;12.43;;;5.55;;
71435;SDS011;59251;51.326;12.370;2023-08-21T06:35:10;11.10;;;5.43;;
71435;SDS011;59251;51.326;12.370;2023-08-21T06:37:37;11.60;;;5.03;;
71435;SDS011;59251;51.326;12.370;2023-08-21T06:40:04;11.20;;;5.50;;
71435;SDS011;59251;51.326;12.370;2023-08-21T06:42:32;13.23;;;5.43;;
71435;SDS011;59251;51.326;12.370;2023-08-21T06:45:00;11.75;;;5.72;;
71435;SDS011;59251;51.326;12.370;2023-08-21T06:47:28;11.60;;;5.72;;
71435;SDS011;59251;51.326;12.370;2023-08-21T06:49:56;11.45;;;4.90;;
71435;SDS011;59251;51.326;12.370;2023-08-21T06:52:25;12.10;;;5.30;;
71435;SDS011;59251;51.326;12.370;2023-08-21T06:54:52;14.57;;;5.13;;
71435;SDS011;59251;51.326;12.370;2023-08-21T06:57:18;15.00;;;5.30;;
71435;SDS011;59251;51.326;12.370;2023-08-21T06:59:45;12.80;;;5.07;;
71435;SDS011;59251;51.326;12.370;2023-08-21T07:02:12;11.85;;;5.50;;
71435;SDS011;59251;51.326;12.370;2023-08-21T07:04:39;12.25;;;5.32;;
71435;SDS011;59251;51.326;12.370;2023-08-21T07:07:07;12.30;;;5.27;;
71435;SDS011;59251;51.326;12.370;2023-08-21T07:09:33;11.98;;;5.18;;
71435;SDS011;59251;51.326;12.370;2023-08-21T07:12:00;11.02;;;5.53;;
71435;SDS011;59251;51.326;12.370;2023-08-21T07:14:28;12.80;;;5.38;;
71435;SDS011;59251;51.326;12.370;2023-08-21T07:16:54;12.55;;;5.45;;
71435;SDS011;59251;51.326;12.370;2023-08-21T07:19:21;14.23;;;5.73;;
71435;SDS011;59251;51.326;12.370;2023-08-21T07:21:48;12.32;;;5.70;;
71435;SDS011;59251;51.326;12.370;2023-08-21T07:24:16;14.18;;;5.60;;
71435;SDS011;59251;51.326;12.370;2023-08-21T07:26:43;10.90;;;5.43;;
71435;SDS011;59251;51.326;12.370;2023-08-21T07:29:10;15.27;;;5.40;;
71435;SDS011;59251;51.326;12.370;2023-08-21T07:31:36;11.67;;;5.43;;
71435;SDS011;59251;51.326;12.370;2023-08-21T07:34:03;10.93;;;5.60;;
71435;SDS011;59251;51.326;12.370;2023-08-21T07:36:31;12.65;;;5.10;;
71435;SDS011;59251;51.326;12.370;2023-08-21T07:38:58;10.68;;;5.25;;
71435;SDS011;59251;51.326;12.370;2023-08-21T07:41:26;11.10;;;5.88;;
71435;SDS011;59251;51.326;12.370;2023-08-21T07:43:52;11.83;;;6.07;;
71435;SDS011;59251;51.326;12.370;2023-08-21T07:46:19;11.40;;;5.50;;
71435;SDS011;59251;51.326;12.370;2023-08-21T07:48:46;13.85;;;6.10;;
71435;SDS011;59251;51.326;12.370;2023-08-21T07:51:13;14.25;;;6.38;;
71435;SDS011;59251;51.326;12.370;2023-08-21T07:53:40;11.13;;;6.25;;
71435;SDS011;59251;51.326;12.370;2023-08-21T07:56:06;16.83;;;6.27;;
71435;SDS011;59251;51.326;12.370;2023-08-21T07:58:35;11.25;;;6.35;;
71435;SDS011;59251;51.326;12.370;2023-08-21T08:01:01;11.55;;;6.20;;
71435;SDS011;59251;51.326;12.370;2023-08-21T08:03:29;12.10;;;6.70;;
71435;SDS011;59251;51.326;12.370;2023-08-21T08:05:56;12.32;;;6.80;;
71435;SDS011;59251;51.326;12.370;2023-08-21T08:08:24;14.03;;;6.13;;
71435;SDS011;59251;51.326;12.370;2023-08-21T08:10:51;15.68;;;7.20;;
71435;SDS011;59251;51.326;12.370;2023-08-21T08:13:17;15.05;;;7.20;;
71435;SDS011;59251;51.326;12.370;2023-08-21T08:15:46;12.70;;;7.07;;
71435;SDS011;59251;51.326;12.370;2023-08-21T08:18:12;11.18;;;5.93;;
71435;SDS011;59251;51.326;12.370;2023-08-21T08:20:39;11.67;;;5.87;;
71435;SDS011;59251;51.326;12.370;2023-08-21T08:23:06;12.20;;;6.20;;
71435;SDS011;59251;51.326;12.370;2023-08-21T08:25:33;10.18;;;6.00;;
71435;SDS011;59251;51.326;12.370;2023-08-21T08:28:00;12.45;;;6.35;;
71435;SDS011;59251;51.326;12.370;2023-08-21T08:30:27;13.10;;;5.75;;
71435;SDS011;59251;51.326;12.370;2023-08-21T08:32:55;11.93;;;5.50;;
71435;SDS011;59251;51.326;12.370;2023-08-21T08:35:22;12.13;;;5.55;;
71435;SDS011;59251;51.326;12.370;2023-08-21T08:37:49;11.43;;;4.78;;
71435;SDS011;59251;51.326;12.370;2023-08-21T08:40:16;13.18;;;5.07;;
71435;SDS011;59251;51.326;12.370;2023-08-21T08:42:42;12.35;;;5.90;;
71435;SDS011;59251;51.326;12.370;2023-08-21T08:45:09;15.47;;;5.70;;
71435;SDS011;59251;51.326;12.370;2023-08-21T08:47:39;11.98;;;4.90;;
71435;SDS011;59251;51.326;12.370;2023-08-21T08:50:08;12.98;;;4.63;;
71435;SDS011;59251;51.326;12.370;2023-08-21T08:52:36;10.05;;;5.05;;
71435;SDS011;59251;51.326;12.370;2023-08-21T08:55:04;10.20;;;4.70;;
71435;SDS011;59251;51.326;12.370;2023-08-21T08:57:31;8.93;;;4.30;;
71435;SDS011;59251;51.326;12.370;2023-08-21T08:59:59;10.40;;;5.32;;
71435;SDS011;59251;51.326;12.370;2023-08-21T09:02:25;14.00;;;4.50;;
71435;SDS011;59251;51.326;12.370;2023-08-21T09:04:52;9.35;;;5.07;;
71435;SDS011;59251;51.326;12.370;2023-08-21T09:07:21;11.65;;;4.95;;
71435;SDS011;59251;51.326;12.370;2023-08-21T09:09:48;7.97;;;4.27;;
71435;SDS011;59251;51.326;12.370;2023-08-21T09:12:16;11.50;;;4.80;;
71435;SDS011;59251;51.326;12.370;2023-08-21T09:14:44;9.68;;;5.10;;
71435;SDS011;59251;51.326;12.370;2023-08-21T09:17:11;10.32;;;4.63;;
71435;SDS011;59251;51.326;12.370;2023-08-21T09:19:38;12.52;;;4.40;;
71435;SDS011;59251;51.326;12.370;2023-08-21T09:22:09;11.97;;;4.20;;
71435;SDS011;59251;51.326;12.370;2023-08-21T09:24:39;15.80;;;4.82;;
71435;SDS011;59251;51.326;12.370;2023-08-21T09:27:13;14.07;;;4.70;;
71435;SDS011;59251;51.326;12.370;2023-08-21T09:29:42;9.48;;;4.03;;
71435;SDS011;59251;51.326;12.370;2023-08-21T09:32:08;10.25;;;4.47;;
71435;SDS011;59251;51.326;12.370;2023-08-21T09:34:36;11.40;;;4.60;;
71435;SDS011;59251;51.326;12.370;2023-08-21T09:37:04;10.05;;;3.95;;
71435;SDS011;59251;51.326;12.370;2023-08-21T09:39:33;10.27;;;3.90;;
71435;SDS011;59251;51.326;12.370;2023-08-21T09:42:03;8.68;;;3.60;;
71435;SDS011;59251;51.326;12.370;2023-08-21T09:44:34;10.20;;;4.20;;
71435;SDS011;59251;51.326;12.370;2023-08-21T09:47:02;8.33;;;3.53;;
71435;SDS011;59251;51.326;12.370;2023-08-21T09:49:29;8.80;;;3.45;;
71435;SDS011;59251;51.326;12.370;2023-08-21T09:51:57;10.00;;;4.00;;
71435;SDS011;59251;51.326;12.370;2023-08-21T09:54:25;10.18;;;4.10;;
71435;SDS011;59251;51.326;12.370;2023-08-21T09:56:52;8.93;;;3.92;;
71435;SDS011;59251;51.326;12.370;2023-08-21T09:59:20;10.10;;;3.90;;
71435;SDS011;59251;51.326;12.370;2023-08-21T10:01:50;7.57;;;3.45;;
71435;SDS011;59251;51.326;12.370;2023-08-21T10:04:17;11.63;;;3.88;;
71435;SDS011;59251;51.326;12.370;2023-08-21T10:06:46;9.35;;;3.45;;
71435;SDS011;59251;51.326;12.370;2023-08-21T10:09:14;11.82;;;3.92;;
71435;SDS011;59251;51.326;12.370;2023-08-21T10:11:42;9.50;;;3.50;;
71435;SDS011;59251;51.326;12.370;2023-08-21T10:14:10;9.75;;;4.15;;
71435;SDS011;59251;51.326;12.370;2023-08-21T10:16:39;7.93;;;3.28;;
71435;SDS011;59251;51.326;12.370;2023-08-21T10:19:05;8.48;;;3.50;;
71435;SDS011;59251;51.326;12.370;2023-08-21T10:21:34;8.75;;;3.85;;
71435;SDS011;59251;51.326;12.370;2023-08-21T10:24:02;8.87;;;3.70;;
71435;SDS011;59251;51.326;12.370;2023-08-21T10:26:29;9.57;;;3.50;;
71435;SDS011;59251;51.326;12.370;2023-08-21T10:28:58;10.50;;;3.95;;
71435;SDS011;59251;51.326;12.370;2023-08-21T10:31:28;9.55;;;3.53;;
71435;SDS011;59251;51.326;12.370;2023-08-21T10:33:58;10.10;;;3.60;;
71435;SDS011;59251;51.326;12.370;2023-08-21T10:39:33;10.00;;;3.92;;
71435;SDS011;59251;51.326;12.370;2023-08-21T10:42:04;9.13;;;3.70;;
71435;SDS011;59251;51.326;12.370;2023-08-21T10:44:51;8.57;;;3.25;;
71435;SDS011;59251;51.326;12.370;2023-08-21T10:47:21;8.90;;;3.15;;
71435;SDS011;59251;51.326;12.370;2023-08-21T10:49:51;11.30;;;4.47;;
71435;SDS011;59251;51.326;12.370;2023-08-21T10:52:22;10.02;;;4.22;;
71435;SDS011;59251;51.326;12.370;2023-08-21T10:54:50;8.05;;;3.70;;
71435;SDS011;59251;51.326;12.370;2023-08-21T10:57:18;7.38;;;3.10;;
71435;SDS011;59251;51.326;12.370;2023-08-21T10:59:51;9.35;;;2.97;;
71435;SDS011;59251;51.326;12.370;2023-08-21T11:02:19;9.00;;;2.73;;
71435;SDS011;59251;51.326;12.370;2023-08-21T11:04:46;9.15;;;2.97;;
71435;SDS011;59251;51.326;12.370;2023-08-21T11:07:14;9.32;;;3.10;;
71435;SDS011;59251;51.326;12.370;2023-08-21T11:09:41;6.15;;;2.72;;
71435;SDS011;59251;51.326;12.370;2023-08-21T11:12:08;7.13;;;2.95;;
71435;SDS011;59251;51.326;12.370;2023-08-21T11:14:37;7.80;;;3.20;;
71435;SDS011;59251;51.326;12.370;2023-08-21T11:17:04;7.50;;;3.03;;
71435;SDS011;59251;51.326;12.370;2023-08-21T11:19:32;7.88;;;2.95;;
71435;SDS011;59251;51.326;12.370;2023-08-21T11:21:59;7.90;;;3.10;;
71435;SDS011;59251;51.326;12.370;2023-08-21T11:24:33;7.20;;;3.15;;
71435;SDS011;59251;51.326;12.370;2023-08-21T11:27:06;8.13;;;3.20;;
71435;SDS011;59251;51.326;12.370;2023-08-21T11:29:36;8.10;;;3.47;;
71435;SDS011;59251;51.326;12.370;2023-08-21T11:32:07;9.50;;;3.42;;
71435;SDS011;59251;51.326;12.370;2023-08-21T11:34:34;8.10;;;2.70;;
71435;SDS011;59251;51.326;12.370;2023-08-21T11:37:01;7.15;;;3.15;;
71435;SDS011;59251;51.326;12.370;2023-08-21T11:39:39;8.30;;;3.27;;
71435;SDS011;59251;51.326;12.370;2023-08-21T11:42:10;7.07;;;2.85;;
71435;SDS011;59251;51.326;12.370;2023-08-21T11:44:41;7.78;;;3.15;;
71435;SDS011;59251;51.326;12.370;2023-08-21T11:47:09;7.43;;;3.08;;
71435;SDS011;59251;51.326;12.370;2023-08-21T11:49:37;7.25;;;3.20;;
71435;SDS011;59251;51.326;12.370;2023-08-21T11:52:04;7.13;;;3.10;;
71435;SDS011;59251;51.326;12.370;2023-08-21T11:54:34;8.45;;;2.70;;
71435;SDS011;59251;51.326;12.370;2023-08-21T11:57:05;7.88;;;3.10;;
71435;SDS011;59251;51.326;12.370;2023-08-21T11:59:32;7.10;;;2.90;;
71435;SDS011;59251;51.326;12.370;2023-08-21T12:01:59;8.43;;;3.35;;
71435;SDS011;59251;51.326;12.370;2023-08-21T12:04:26;8.90;;;3.43;;
71435;SDS011;59251;51.326;12.370;2023-08-21T12:06:53;6.70;;;3.35;;
71435;SDS011;59251;51.326;12.370;2023-08-21T12:09:20;6.88;;;3.00;;
71435;SDS011;59251;51.326;12.370;2023-08-21T12:11:47;7.65;;;3.55;;
71435;SDS011;59251;51.326;12.370;2023-08-21T12:14:15;8.73;;;4.00;;
71435;SDS011;59251;51.326;12.370;2023-08-21T12:16:42;9.23;;;4.00;;
71435;SDS011;59251;51.326;12.370;2023-08-21T12:19:10;9.65;;;3.78;;
71435;SDS011;59251;51.326;12.370;2023-08-21T12:21:37;7.60;;;3.92;;
71435;SDS011;59251;51.326;12.370;2023-08-21T12:24:04;10.98;;;5.47;;
71435;SDS011;59251;51.326;12.370;2023-08-21T12:26:32;9.20;;;4.10;;
71435;SDS011;59251;51.326;12.370;2023-08-21T12:29:00;9.80;;;3.60;;
71435;SDS011;59251;51.326;12.370;2023-08-21T12:31:28;9.38;;;3.90;;
71435;SDS011;59251;51.326;12.370;2023-08-21T12:33:56;7.55;;;3.97;;
71435;SDS011;59251;51.326;12.370;2023-08-21T12:36:23;8.32;;;3.88;;
71435;SDS011;59251;51.326;12.370;2023-08-21T12:38:50;9.50;;;4.65;;
71435;SDS011;59251;51.326;12.370;2023-08-21T12:41:17;7.27;;;3.90;;
71435;SDS011;59251;51.326;12.370;2023-08-21T12:43:43;10.52;;;4.38;;
71435;SDS011;59251;51.326;12.370;2023-08-21T12:46:10;9.63;;;4.65;;
71435;SDS011;59251;51.326;12.370;2023-08-21T12:48:39;8.30;;;4.57;;
71435;SDS011;59251;51.326;12.370;2023-08-21T12:51:05;8.23;;;4.82;;
71435;SDS011;59251;51.326;12.370;2023-08-21T12:53:32;7.97;;;4.70;;
71435;SDS011;59251;51.326;12.370;2023-08-21T12:55:59;8.93;;;4.55;;
71435;SDS011;59251;51.326;12.370;2023-08-21T12:58:25;8.27;;;4.25;;
71435;SDS011;59251;51.326;12.370;2023-08-21T13:00:52;7.53;;;4.55;;
71435;SDS011;59251;51.326;12.370;2023-08-21T13:03:20;7.72;;;4.40;;
71435;SDS011;59251;51.326;12.370;2023-08-21T13:05:48;8.77;;;4.10;;
71435;SDS011;59251;51.326;12.370;2023-08-21T13:08:14;8.70;;;4.30;;
71435;SDS011;59251;51.326;12.370;2023-08-21T13:10:41;7.93;;;4.18;;
71435;SDS011;59251;51.326;12.370;2023-08-21T13:13:08;9.40;;;4.30;;
71435;SDS011;59251;51.326;12.370;2023-08-21T13:15:35;7.80;;;4.15;;
71435;SDS011;59251;51.326;12.370;2023-08-21T13:18:02;7.87;;;5.10;;
71435;SDS011;59251;51.326;12.370;2023-08-21T13:20:29;7.70;;;4.43;;
71435;SDS011;59251;51.326;12.370;2023-08-21T13:22:57;10.35;;;5.10;;
71435;SDS011;59251;51.326;12.370;2023-08-21T13:25:23;7.85;;;4.53;;
71435;SDS011;59251;51.326;12.370;2023-08-21T13:27:51;8.63;;;4.68;;
71435;SDS011;59251;51.326;12.370;2023-08-21T13:30:18;11.90;;;4.93;;
71435;SDS011;59251;51.326;12.370;2023-08-21T13:32:47;9.75;;;4.70;;
71435;SDS011;59251;51.326;12.370;2023-08-21T13:35:14;8.13;;;5.70;;
71435;SDS011;59251;51.326;12.370;2023-08-21T13:37:42;9.05;;;4.72;;
71435;SDS011;59251;51.326;12.370;2023-08-21T13:40:10;8.00;;;4.35;;
71435;SDS011;59251;51.326;12.370;2023-08-21T13:42:39;7.27;;;4.47;;
71435;SDS011;59251;51.326;12.370;2023-08-21T13:45:07;7.70;;;4.03;;
71435;SDS011;59251;51.326;12.370;2023-08-21T13:47:36;8.98;;;3.95;;
71435;SDS011;59251;51.326;12.370;2023-08-21T13:50:03;7.80;;;4.10;;
71435;SDS011;59251;51.326;12.370;2023-08-21T13:52:31;7.80;;;4.35;;
71435;SDS011;59251;51.326;12.370;2023-08-21T13:54:59;7.87;;;4.60;;
71435;SDS011;59251;51.326;12.370;2023-08-21T13:57:27;6.72;;;4.00;;
71435;SDS011;59251;51.326;12.370;2023-08-21T13:59:54;7.65;;;4.55;;
71435;SDS011;59251;51.326;12.370;2023-08-21T14:02:21;9.48;;;4.47;;
71435;SDS011;59251;51.326;12.370;2023-08-21T14:04:48;7.70;;;4.53;;
71435;SDS011;59251;51.326;12.370;2023-08-21T14:07:15;7.47;;;4.57;;
71435;SDS011;59251;51.326;12.370;2023-08-21T14:09:42;8.80;;;4.47;;
71435;SDS011;59251;51.326;12.370;2023-08-21T14:12:08;7.53;;;4.50;;
71435;SDS011;59251;51.326;12.370;2023-08-21T14:14:37;10.45;;;4.80;;
71435;SDS011;59251;51.326;12.370;2023-08-21T14:17:03;8.05;;;4.22;;
71435;SDS011;59251;51.326;12.370;2023-08-21T14:19:30;8.93;;;4.90;;
71435;SDS011;59251;51.326;12.370;2023-08-21T14:21:57;7.57;;;4.25;;
71435;SDS011;59251;51.326;12.370;2023-08-21T14:24:24;10.18;;;4.63;;
71435;SDS011;59251;51.326;12.370;2023-08-21T14:26:51;7.47;;;4.57;;
71435;SDS011;59251;51.326;12.370;2023-08-21T14:29:18;9.07;;;4.53;;
71435;SDS011;59251;51.326;12.370;2023-08-21T14:31:46;7.47;;;4.63;;
71435;SDS011;59251;51.326;12.370;2023-08-21T14:34:13;10.60;;;4.78;;